Time;durP1;ratioP1;P1;durP2;ratioP2;P2;SDS_P1;SDS_P2;PMS_P1;PMS_P2;Temp;Humidity;BMP_temperature;BMP_pressure;BME280_temperature;BME280_humidity;BME280_pressure;Samples;Min_cycle;Max_cycle;Signal;HPM_P1;HPM_P2
2021/11/03 00:00:33;;;;;;;71.15;44.00;;;;;;;6.39;100.00;98004.31;2088319;28;20279;-81
2021/11/03 00:01:35;;;;;;;69.63;43.63;;;;;;;6.36;100.00;97999.59;2087084;28;20613;-82
2021/11/03 00:02:36;;;;;;;64.88;43.75;;;;;;;6.35;100.00;97995.38;2088031;28;20233;-81
2021/11/03 00:03:39;;;;;;;60.77;41.13;;;;;;;6.38;100.00;97996.66;2104163;28;20711;-80
2021/11/03 00:04:40;;;;;;;68.45;42.65;;;;;;;6.38;100.00;97999.31;2105186;28;20229;-81
2021/11/03 00:05:45;;;;;;;65.13;42.75;;;;;;;6.38;100.00;98000.09;2105078;28;20248;-82
2021/11/03 00:06:46;;;;;;;61.83;41.17;;;;;;;6.37;100.00;97995.09;2105243;28;20300;-81
2021/11/03 00:07:48;;;;;;;64.47;41.73;;;;;;;6.38;100.00;97994.78;2104074;28;20228;-81
2021/11/03 00:08:50;;;;;;;58.85;41.38;;;;;;;6.38;100.00;97994.00;2096100;28;20221;-82
2021/11/03 00:09:53;;;;;;;63.47;41.63;;;;;;;6.36;100.00;97988.22;2089646;28;20224;-82
2021/11/03 00:10:54;;;;;;;60.47;41.92;;;;;;;6.38;100.00;97994.00;2102422;28;20225;-80
2021/11/03 00:11:56;;;;;;;60.03;41.92;;;;;;;6.36;100.00;97991.66;2104397;28;20272;-82
2021/11/03 00:12:57;;;;;;;64.78;43.15;;;;;;;6.37;100.00;98000.38;2104384;28;20233;-79
2021/11/03 00:13:59;;;;;;;62.67;42.00;;;;;;;6.39;100.00;97998.22;2088603;28;20218;-78
2021/11/03 00:14:59;;;;;;;62.17;42.08;;;;;;;6.39;100.00;98004.31;2096192;28;20267;-80
2021/11/03 00:16:01;;;;;;;63.63;44.07;;;;;;;6.39;100.00;98003.53;2096846;28;20279;-80
2021/11/03 00:17:02;;;;;;;65.70;42.65;;;;;;;6.37;100.00;97998.53;2095908;28;20218;-79
2021/11/03 00:18:04;;;;;;;66.95;43.35;;;;;;;6.37;100.00;98003.03;2087394;28;20222;-79
2021/11/03 00:19:05;;;;;;;65.60;42.55;;;;;;;6.36;100.00;98010.19;2096120;28;20222;-79
2021/11/03 00:20:09;;;;;;;61.30;40.53;;;;;;;6.35;100.00;98002.56;2096826;28;20284;-80
2021/11/03 00:21:10;;;;;;;67.93;43.55;;;;;;;6.33;100.00;97996.75;2103868;28;20229;-80
2021/11/03 00:22:12;;;;;;;63.93;43.70;;;;;;;6.35;100.00;98002.56;2104380;28;20217;-79
2021/11/03 00:23:13;;;;;;;57.47;41.35;;;;;;;6.34;100.00;98000.97;2105053;28;20555;-79
2021/11/03 00:24:15;;;;;;;62.80;41.42;;;;;;;6.38;100.00;98002.75;2104299;28;20258;-79
2021/11/03 00:25:17;;;;;;;62.92;42.22;;;;;;;6.37;100.00;98003.03;2104496;28;20232;-80
2021/11/03 00:26:19;;;;;;;64.88;41.38;;;;;;;6.35;100.00;98003.34;2103941;28;20217;-80
2021/11/03 00:27:20;;;;;;;65.88;41.92;;;;;;;6.37;100.00;98008.34;2104530;28;20221;-80
2021/11/03 00:28:22;;;;;;;62.67;40.37;;;;;;;6.36;100.00;98014.72;2104376;28;20351;-80
2021/11/03 00:29:23;;;;;;;66.50;42.20;;;;;;;6.34;100.00;98015.00;2087364;28;20569;-79
2021/11/03 00:30:25;;;;;;;62.27;42.17;;;;;;;6.36;100.00;98020.00;2095195;28;20287;-80
2021/11/03 00:31:25;;;;;;;65.28;43.00;;;;;;;6.35;100.00;98024.53;2087579;28;20231;-80
2021/11/03 00:32:27;;;;;;;60.17;41.53;;;;;;;6.35;100.00;98018.44;2096064;28;21309;-80
2021/11/03 00:33:31;;;;;;;68.70;43.90;;;;;;;6.35;100.00;98021.09;2095163;28;20263;-80
2021/11/03 00:34:35;;;;;;;64.25;42.17;;;;;;;6.31;100.00;98028.03;2096036;28;20299;-80
2021/11/03 00:35:39;;;;;;;63.33;42.30;;;;;;;6.34;100.00;98030.09;2097295;28;20226;-80
2021/11/03 00:36:41;;;;;;;66.10;42.17;;;;;;;6.35;100.00;98039.63;2086724;28;20250;-80
2021/11/03 00:37:42;;;;;;;60.75;42.00;;;;;;;6.37;100.00;98032.19;2089716;28;20581;-80
2021/11/03 00:38:43;;;;;;;67.25;42.58;;;;;;;6.32;100.00;98030.41;2087640;28;20233;-80
2021/11/03 00:39:45;;;;;;;64.68;43.10;;;;;;;6.36;100.00;98031.41;2087387;28;20223;-80
2021/11/03 00:40:49;;;;;;;70.75;43.15;;;;;;;6.36;100.00;98035.91;2096816;28;20222;-80
2021/11/03 00:41:51;;;;;;;61.58;42.38;;;;;;;6.35;100.00;98042.28;2098400;28;20222;-80
2021/11/03 00:42:52;;;;;;;65.05;42.53;;;;;;;6.31;100.00;98036.78;2096547;28;20213;-78
2021/11/03 00:43:54;;;;;;;63.55;43.45;;;;;;;6.35;100.00;98042.28;2089234;28;20222;-80
2021/11/03 00:44:55;;;;;;;72.65;44.22;;;;;;;6.33;100.00;98041.78;2089368;28;20719;-79
2021/11/03 00:45:57;;;;;;;65.87;42.80;;;;;;;6.31;100.00;98039.44;2089078;28;20620;-80
2021/11/03 00:47:01;;;;;;;64.70;43.00;;;;;;;6.32;100.00;98040.22;2089235;28;20218;-79
2021/11/03 00:48:03;;;;;;;61.92;42.00;;;;;;;6.34;100.00;98043.34;2097871;28;20226;-80
2021/11/03 00:49:08;;;;;;;68.70;44.22;;;;;;;6.33;100.00;98039.13;2104951;28;20227;-79
2021/11/03 00:50:09;;;;;;;69.55;43.85;;;;;;;6.32;100.00;98048.16;2097525;28;20226;-79
2021/11/03 00:51:11;;;;;;;63.50;42.37;;;;;;;6.27;100.00;98035.00;2089111;28;20226;-80
2021/11/03 00:52:12;;;;;;;69.55;43.78;;;;;;;6.28;100.00;98044.53;2096165;28;20671;-80
2021/11/03 00:53:14;;;;;;;68.80;43.57;;;;;;;6.27;100.00;98046.41;2105245;28;20580;-79
2021/11/03 00:54:17;;;;;;;72.60;45.08;;;;;;;6.24;100.00;98044.31;2097266;28;20261;-79
2021/11/03 00:55:18;;;;;;;70.82;44.17;;;;;;;6.20;100.00;98043.34;2089614;28;20685;-79
2021/11/03 00:56:21;;;;;;;69.32;43.67;;;;;;;6.19;100.00;98039.91;2089120;28;20226;-80
2021/11/03 00:57:22;;;;;;;66.25;43.05;;;;;;;6.16;100.00;98039.69;2097137;28;20790;-79
2021/11/03 00:58:24;;;;;;;71.93;45.87;;;;;;;6.14;100.00;98039.97;2105783;28;20614;-79
2021/11/03 00:59:25;;;;;;;70.30;45.05;;;;;;;6.13;100.00;98043.72;2105603;28;20245;-79
2021/11/03 01:00:28;;;;;;;71.27;44.37;;;;;;;6.09;100.00;98045.38;2105670;28;20228;-80
2021/11/03 01:01:29;;;;;;;71.93;43.53;;;;;;;6.05;100.00;98041.72;2097379;28;20245;-79
2021/11/03 01:02:31;;;;;;;67.68;46.45;;;;;;;6.03;100.00;98051.06;2105719;28;20220;-80
2021/11/03 01:03:34;;;;;;;70.00;44.95;;;;;;;5.99;100.00;98058.78;2097405;28;20228;-79
2021/11/03 01:04:34;;;;;;;74.97;47.00;;;;;;;5.94;100.00;98046.41;2097433;28;20218;-80
2021/11/03 01:05:38;;;;;;;68.70;43.87;;;;;;;5.93;100.00;98054.66;2096883;28;20222;-80
2021/11/03 01:06:40;;;;;;;71.07;44.65;;;;;;;5.94;100.00;98056.22;2097365;28;20703;-79
2021/11/03 01:07:43;;;;;;;71.60;44.40;;;;;;;5.93;100.00;98057.31;2105814;28;20622;-79
2021/11/03 01:08:45;;;;;;;74.50;45.53;;;;;;;5.90;100.00;98055.19;2106401;28;20225;-80
2021/11/03 01:09:47;;;;;;;69.90;44.22;;;;;;;5.89;100.00;98062.34;2105676;28;20616;-80
2021/11/03 01:10:52;;;;;;;73.90;45.40;;;;;;;5.88;100.00;98054.69;2097257;28;20281;-80
2021/11/03 01:11:55;;;;;;;72.97;45.75;;;;;;;5.84;100.00;98059.00;2097494;28;20310;-79
2021/11/03 01:12:56;;;;;;;72.88;46.00;;;;;;;5.82;100.00;98058.50;2097237;28;20722;-80
2021/11/03 01:13:58;;;;;;;74.17;45.33;;;;;;;5.82;100.00;98063.78;2097362;28;20667;-79
2021/11/03 01:15:02;;;;;;;69.97;45.15;;;;;;;5.83;100.00;98068.81;2105745;28;20217;-80
2021/11/03 01:16:05;;;;;;;75.03;47.10;;;;;;;5.80;100.00;98064.09;2106403;28;20300;-80
2021/11/03 01:17:06;;;;;;;75.25;46.13;;;;;;;5.79;100.00;98057.22;2106381;28;20225;-80
2021/11/03 01:18:08;;;;;;;75.88;46.13;;;;;;;5.79;100.00;98064.38;2105981;28;20667;-77
2021/11/03 01:19:09;;;;;;;75.85;46.60;;;;;;;5.81;100.00;98068.28;2106401;28;20279;-79
2021/11/03 01:20:12;;;;;;;76.75;46.97;;;;;;;5.83;100.00;98066.16;2096386;28;20221;-79
2021/11/03 01:21:14;;;;;;;77.13;44.25;;;;;;;5.86;100.00;98070.09;2097429;28;20226;-80
2021/11/03 01:22:16;;;;;;;72.88;46.08;;;;;;;5.84;100.00;98065.09;2097349;28;20246;-79
2021/11/03 01:23:19;;;;;;;71.57;44.72;;;;;;;5.85;100.00;98071.16;2105599;28;20224;-80
2021/11/03 01:24:20;;;;;;;79.63;45.42;;;;;;;5.85;100.00;98063.22;2105482;28;20213;-80
2021/11/03 01:25:22;;;;;;;72.30;45.47;;;;;;;5.85;100.00;98063.22;2105596;28;20770;-80
2021/11/03 01:26:23;;;;;;;74.93;44.05;;;;;;;5.84;100.00;98067.75;2105961;28;20221;-80
2021/11/03 01:27:26;;;;;;;73.03;45.35;;;;;;;5.84;100.00;98067.75;2106394;28;20225;-79
2021/11/03 01:28:28;;;;;;;77.57;44.28;;;;;;;5.85;100.00;98068.53;2105237;28;20572;-80
2021/11/03 01:29:30;;;;;;;70.38;43.88;;;;;;;5.79;100.00;98061.72;2097223;28;20248;-79
2021/11/03 01:30:31;;;;;;;79.47;44.95;;;;;;;5.80;100.00;98060.66;2097173;28;20303;-80
2021/11/03 01:31:34;;;;;;;76.37;46.07;;;;;;;5.79;100.00;98065.16;2096515;28;20230;-80
2021/11/03 01:32:34;;;;;;;66.22;43.45;;;;;;;5.80;100.00;98066.72;2096708;28;20234;-80
2021/11/03 01:33:36;;;;;;;72.73;44.70;;;;;;;5.76;100.00;98055.16;2096940;28;20226;-80
2021/11/03 01:34:37;;;;;;;69.03;43.78;;;;;;;5.72;100.00;98056.00;2096599;28;20767;-80
2021/11/03 01:35:41;;;;;;;71.20;43.50;;;;;;;5.68;100.00;98053.94;2096820;28;20609;-79
2021/11/03 01:36:42;;;;;;;68.28;43.03;;;;;;;5.65;100.00;98041.31;2105480;28;20248;-80
2021/11/03 01:37:44;;;;;;;64.28;43.55;;;;;;;5.61;100.00;98045.59;2097019;28;20238;-80
2021/11/03 01:38:45;;;;;;;71.15;44.00;;;;;;;5.59;100.00;98045.09;2096905;28;20218;-80
2021/11/03 01:39:47;;;;;;;73.83;45.20;;;;;;;5.59;100.00;98044.31;2096567;28;20679;-80
2021/11/03 01:40:50;;;;;;;73.35;45.13;;;;;;;5.58;100.00;98042.75;2096906;28;20218;-80
2021/11/03 01:41:53;;;;;;;75.00;45.92;;;;;;;5.56;100.00;98044.88;2097204;28;20676;-79
2021/11/03 01:42:57;;;;;;;74.18;44.15;;;;;;;5.54;100.00;98050.44;2096894;28;20226;-80
2021/11/03 01:44:03;;;;;;;69.60;44.60;;;;;;;5.54;100.00;98047.81;2097278;28;20355;-80
2021/11/03 01:45:07;;;;;;;76.18;44.22;;;;;;;5.55;100.00;98048.59;2097246;28;20214;-80
2021/11/03 01:46:16;;;;;;;73.78;44.00;;;;;;;5.60;100.00;98051.16;2088580;28;20578;-79
2021/11/03 01:47:43;;;;;;;70.82;43.05;;;;;;;5.65;100.00;98054.53;2093466;28;20570;-80
2021/11/03 01:48:47;;;;;;;76.20;44.55;;;;;;;5.66;100.00;98061.41;2094679;28;20225;-79
2021/11/03 01:49:53;;;;;;;73.50;43.15;;;;;;;5.67;100.00;98059.53;2097551;28;20222;-79
2021/11/03 01:50:56;;;;;;;77.82;45.55;;;;;;;5.67;100.00;98065.63;2095171;28;20593;-79
2021/11/03 01:52:00;;;;;;;73.72;45.10;;;;;;;5.65;100.00;98059.03;2096506;28;20245;-79
2021/11/03 01:53:08;;;;;;;79.57;44.72;;;;;;;5.71;100.00;98063.16;2096279;28;20230;-80
2021/11/03 01:54:12;;;;;;;69.35;44.65;;;;;;;5.68;100.00;98059.25;2088958;28;20842;-79
2021/11/03 01:55:14;;;;;;;75.72;46.13;;;;;;;5.65;100.00;98059.03;2089040;28;20305;-79
2021/11/03 01:56:18;;;;;;;73.15;44.88;;;;;;;5.64;100.00;98060.09;2088298;28;20219;-79
2021/11/03 01:57:23;;;;;;;77.68;46.30;;;;;;;5.62;100.00;98060.38;2088999;28;20223;-79
2021/11/03 01:58:32;;;;;;;77.97;46.08;;;;;;;5.57;100.00;98060.47;2096524;28;20226;-79
2021/11/03 01:59:35;;;;;;;78.65;46.40;;;;;;;5.53;100.00;98058.69;2089478;28;20230;-80
2021/11/03 02:00:41;;;;;;;70.82;44.70;;;;;;;5.50;100.00;98068.00;2088680;28;20233;-77
2021/11/03 02:01:42;;;;;;;80.85;47.50;;;;;;;5.52;100.00;98070.34;2091212;28;20232;-80
2021/11/03 02:02:45;;;;;;;75.13;45.70;;;;;;;5.52;100.00;98071.13;2095699;28;20313;-79
2021/11/03 02:03:52;;;;;;;71.47;46.47;;;;;;;5.47;100.00;98068.53;2097609;28;20217;-80
2021/11/03 02:04:53;;;;;;;76.97;46.20;;;;;;;5.46;100.00;98066.97;2096612;28;20230;-79
2021/11/03 02:05:59;;;;;;;71.90;44.20;;;;;;;5.50;100.00;98067.19;2096391;28;20234;-79
2021/11/03 02:07:03;;;;;;;77.38;46.03;;;;;;;5.47;100.00;98068.53;2094428;28;20313;-79
2021/11/03 02:08:08;;;;;;;74.97;45.00;;;;;;;5.45;100.00;98059.31;2088582;28;20274;-80
2021/11/03 02:09:09;;;;;;;70.47;44.78;;;;;;;5.41;100.00;98061.00;2093190;28;20229;-79
2021/11/03 02:10:14;;;;;;;68.27;43.53;;;;;;;5.35;100.00;98055.75;2105216;28;20309;-79
2021/11/03 02:11:18;;;;;;;65.80;42.88;;;;;;;5.36;100.00;98059.19;2105173;28;20444;-80
2021/11/03 02:12:22;;;;;;;71.60;43.67;;;;;;;5.34;100.00;98054.19;2096912;28;20221;-79
2021/11/03 02:13:25;;;;;;;73.32;44.22;;;;;;;5.33;100.00;98057.13;2092428;28;20234;-79
2021/11/03 02:14:27;;;;;;;70.22;43.97;;;;;;;5.33;100.00;98065.06;2088621;28;20727;-79
2021/11/03 02:15:29;;;;;;;70.30;42.42;;;;;;;5.32;100.00;98061.63;2096928;28;20218;-79
2021/11/03 02:16:32;;;;;;;68.60;42.63;;;;;;;5.34;100.00;98064.75;2096023;28;20218;-79
2021/11/03 02:17:35;;;;;;;65.60;43.00;;;;;;;5.32;100.00;98058.19;2088768;28;20265;-79
2021/11/03 02:18:40;;;;;;;68.93;44.22;;;;;;;5.30;100.00;98061.13;2088946;28;20295;-79
2021/11/03 02:19:42;;;;;;;66.15;43.20;;;;;;;5.29;100.00;98061.41;2105214;28;20587;-79
2021/11/03 02:20:47;;;;;;;69.75;43.22;;;;;;;5.28;100.00;98057.97;2105052;28;20217;-79
2021/11/03 02:21:55;;;;;;;70.43;42.53;;;;;;;5.34;100.00;98058.69;2096838;28;20230;-80
2021/11/03 02:23:06;;;;;;;68.32;42.40;;;;;;;5.31;100.00;98064.56;2096204;28;20232;-79
2021/11/03 02:24:15;;;;;;;69.75;42.65;;;;;;;5.27;100.00;98063.53;2091459;28;20354;-74
2021/11/03 02:25:22;;;;;;;67.07;42.72;;;;;;;5.25;100.00;98060.41;2097854;28;20222;-79
2021/11/03 02:26:26;;;;;;;61.03;41.72;;;;;;;5.22;100.00;98066.28;2105379;28;20281;-79
2021/11/03 02:27:30;;;;;;;72.45;43.40;;;;;;;5.26;100.00;98067.25;2105056;28;20252;-79
2021/11/03 02:28:32;;;;;;;70.07;42.90;;;;;;;5.27;100.00;98068.84;2105135;28;20570;-80
2021/11/03 02:29:34;;;;;;;73.60;43.92;;;;;;;5.28;100.00;98065.91;2096787;28;20715;-79
2021/11/03 02:30:35;;;;;;;68.05;42.08;;;;;;;5.31;100.00;98070.63;2096712;28;20229;-79
2021/11/03 02:31:41;;;;;;;71.45;44.05;;;;;;;5.31;100.00;98081.22;2096908;28;20279;-80
2021/11/03 02:32:43;;;;;;;69.55;42.40;;;;;;;5.30;100.00;98071.72;2104500;28;20237;-79
2021/11/03 02:33:45;;;;;;;67.47;44.28;;;;;;;5.28;100.00;98073.84;2105123;28;20685;-79
2021/11/03 02:34:46;;;;;;;74.07;44.88;;;;;;;5.27;100.00;98072.25;2104729;28;20244;-79
2021/11/03 02:35:51;;;;;;;73.10;44.33;;;;;;;5.31;100.00;98081.22;2096749;28;20279;-79
2021/11/03 02:36:57;;;;;;;72.63;43.70;;;;;;;5.29;100.00;98067.47;2104528;28;20769;-76
2021/11/03 02:38:02;;;;;;;71.93;43.58;;;;;;;5.30;100.00;98068.25;2097430;28;20550;-79
2021/11/03 02:39:06;;;;;;;73.00;44.60;;;;;;;5.29;100.00;98074.63;2097007;28;20229;-79
2021/11/03 02:40:25;;;;;;;65.15;42.28;;;;;;;5.28;100.00;98067.75;2088264;28;20222;-79
2021/11/03 02:41:29;;;;;;;72.40;43.78;;;;;;;5.25;100.00;98071.00;2090081;28;20222;-79
2021/11/03 02:42:32;;;;;;;68.57;42.85;;;;;;;5.23;100.00;98068.63;2088302;28;20219;-79
2021/11/03 02:43:41;;;;;;;68.00;44.20;;;;;;;5.21;100.00;98062.84;2088664;28;20226;-79
2021/11/03 02:44:43;;;;;;;66.63;42.90;;;;;;;5.21;100.00;98062.84;2088884;28;20268;-78
2021/11/03 02:45:50;;;;;;;69.28;43.67;;;;;;;5.19;100.00;98064.97;2090699;28;20231;-79
2021/11/03 02:46:54;;;;;;;67.57;43.60;;;;;;;5.21;100.00;98064.69;2092321;28;20272;-78
2021/11/03 02:47:54;;;;;;;66.40;44.42;;;;;;;5.18;100.00;98068.69;2095041;28;20233;-78
2021/11/03 02:48:56;;;;;;;66.50;43.40;;;;;;;5.18;100.00;98065.25;2096221;28;20305;-79
2021/11/03 02:49:57;;;;;;;67.43;43.90;;;;;;;5.17;100.00;98063.69;2096535;28;20259;-78
2021/11/03 02:51:07;;;;;;;63.83;41.53;;;;;;;5.15;100.00;98060.56;2088217;28;20230;-78
2021/11/03 02:52:14;;;;;;;64.38;41.53;;;;;;;5.13;100.00;98068.00;2096029;28;20250;-78
2021/11/03 02:53:17;;;;;;;66.63;41.75;;;;;;;5.11;100.00;98066.38;2090709;28;20223;-78
2021/11/03 02:54:22;;;;;;;67.07;42.38;;;;;;;5.11;100.00;98070.88;2095791;28;20260;-78
2021/11/03 02:55:24;;;;;;;68.32;42.38;;;;;;;5.07;100.00;98060.09;2103038;28;20275;-78
2021/11/03 02:56:28;;;;;;;68.38;42.17;;;;;;;5.10;100.00;98070.09;2104803;28;20221;-78
2021/11/03 02:57:30;;;;;;;67.53;42.40;;;;;;;5.13;100.00;98065.34;2089588;28;20222;-78
2021/11/03 02:58:32;;;;;;;65.37;41.80;;;;;;;5.10;100.00;98064.81;2088261;28;20219;-78
2021/11/03 02:59:34;;;;;;;68.82;42.85;;;;;;;5.10;100.00;98064.03;2088216;28;20310;-78
2021/11/03 03:00:38;;;;;;;64.75;41.80;;;;;;;5.09;100.00;98063.25;2096609;28;20241;-78
2021/11/03 03:01:42;;;;;;;66.88;42.22;;;;;;;5.11;100.00;98065.59;2096714;28;20218;-78
2021/11/03 03:02:44;;;;;;;63.78;41.97;;;;;;;5.13;100.00;98063.47;2096155;28;20226;-78
2021/11/03 03:03:46;;;;;;;58.72;40.47;;;;;;;5.13;100.00;98068.78;2087790;28;20218;-78
2021/11/03 03:04:52;;;;;;;63.25;40.35;;;;;;;5.09;100.00;98060.59;2088296;28;20273;-78
2021/11/03 03:05:59;;;;;;;65.07;41.00;;;;;;;5.09;100.00;98067.75;2096439;28;20225;-78
2021/11/03 03:07:02;;;;;;;61.25;40.22;;;;;;;5.05;100.00;98066.75;2096568;28;20275;-78
2021/11/03 03:08:04;;;;;;;65.85;40.83;;;;;;;5.04;100.00;98063.34;2096466;28;20226;-78
2021/11/03 03:09:07;;;;;;;62.38;40.40;;;;;;;5.02;100.00;98060.16;2096526;28;20225;-78
2021/11/03 03:10:08;;;;;;;60.30;39.05;;;;;;;4.98;100.00;98056.53;2104563;28;20221;-78
2021/11/03 03:11:11;;;;;;;58.08;39.33;;;;;;;4.95;100.00;98067.69;2104652;28;20270;-78
2021/11/03 03:12:17;;;;;;;59.85;40.22;;;;;;;4.91;100.00;98065.88;2096422;28;20320;-78
2021/11/03 03:13:21;;;;;;;59.65;39.97;;;;;;;4.86;100.00;98058.78;2096962;28;20226;-78
2021/11/03 03:14:24;;;;;;;63.28;40.95;;;;;;;4.85;100.00;98062.50;2104398;28;20224;-78
2021/11/03 03:15:26;;;;;;;56.42;37.60;;;;;;;4.82;100.00;98068.34;2104274;28;20221;-79
2021/11/03 03:16:27;;;;;;;59.55;39.72;;;;;;;4.80;100.00;98070.50;2096401;28;20250;-78
2021/11/03 03:17:30;;;;;;;59.85;39.40;;;;;;;4.78;100.00;98070.78;2096321;28;20218;-79
2021/11/03 03:18:31;;;;;;;59.63;38.75;;;;;;;4.77;100.00;98069.19;2088832;28;20276;-79
2021/11/03 03:19:33;;;;;;;57.53;38.97;;;;;;;4.78;100.00;98070.00;2091197;28;20226;-79
2021/11/03 03:20:34;;;;;;;58.65;40.58;;;;;;;4.76;100.00;98070.25;2095991;28;20267;-79
2021/11/03 03:21:40;;;;;;;62.10;39.97;;;;;;;4.76;100.00;98078.19;2087927;28;20650;-78
2021/11/03 03:22:41;;;;;;;57.30;38.72;;;;;;;4.70;100.00;98063.47;2089748;28;20231;-79
2021/11/03 03:23:43;;;;;;;60.27;41.00;;;;;;;4.72;100.00;98065.84;2095244;28;20230;-79
2021/11/03 03:24:45;;;;;;;61.33;41.25;;;;;;;4.71;100.00;98074.81;2088054;28;20601;-79
2021/11/03 03:25:49;;;;;;;63.13;40.90;;;;;;;4.66;100.00;98070.38;2096557;28;20624;-78
2021/11/03 03:26:53;;;;;;;66.57;40.88;;;;;;;4.66;100.00;98078.31;2096198;28;20701;-79
2021/11/03 03:27:55;;;;;;;61.88;41.50;;;;;;;4.64;100.00;98077.81;2097536;28;20267;-78
2021/11/03 03:28:56;;;;;;;63.47;41.28;;;;;;;4.63;100.00;98075.44;2087942;28;20230;-79
2021/11/03 03:29:58;;;;;;;65.60;41.97;;;;;;;4.60;100.00;98076.00;2089516;28;20234;-79
2021/11/03 03:30:59;;;;;;;57.05;39.55;;;;;;;4.59;100.00;98077.06;2088061;28;20222;-79
2021/11/03 03:32:01;;;;;;;57.47;38.60;;;;;;;4.51;100.00;98070.53;2087889;28;20223;-79
2021/11/03 03:33:01;;;;;;;62.50;39.78;;;;;;;4.46;100.00;98076.66;2096410;28;20251;-79
2021/11/03 03:34:06;;;;;;;59.60;39.73;;;;;;;4.38;100.00;98076.50;2096739;28;20275;-79
2021/11/03 03:35:08;;;;;;;56.92;38.45;;;;;;;4.33;100.00;98081.81;2095696;28;20656;-78
2021/11/03 03:36:10;;;;;;;63.78;40.58;;;;;;;4.28;100.00;98080.03;2087871;28;20291;-78
2021/11/03 03:37:11;;;;;;;62.10;41.30;;;;;;;4.28;100.00;98082.66;2087853;28;20260;-79
2021/11/03 03:38:14;;;;;;;64.55;41.40;;;;;;;4.24;100.00;98079.78;2091088;28;20238;-79
2021/11/03 03:39:18;;;;;;;56.53;38.22;;;;;;;4.24;100.00;98084.28;2104655;28;20717;-79
2021/11/03 03:40:20;;;;;;;56.45;38.90;;;;;;;4.20;100.00;98080.63;2104429;28;20255;-79
2021/11/03 03:41:24;;;;;;;61.08;39.67;;;;;;;4.17;100.00;98089.09;2103756;28;20267;-75
2021/11/03 03:42:28;;;;;;;56.90;39.65;;;;;;;4.19;100.00;98089.63;2089702;28;20301;-79
2021/11/03 03:43:29;;;;;;;60.25;39.63;;;;;;;4.20;100.00;98093.81;2087959;28;20713;-78
2021/11/03 03:44:32;;;;;;;58.53;39.58;;;;;;;4.18;100.00;98088.81;2096200;28;20224;-79
2021/11/03 03:45:32;;;;;;;56.90;38.33;;;;;;;4.20;100.00;98094.59;2095733;28;20257;-79
2021/11/03 03:46:34;;;;;;;56.90;38.58;;;;;;;4.24;100.00;98090.34;2087962;28;20274;-79
2021/11/03 03:47:35;;;;;;;58.28;39.42;;;;;;;4.23;100.00;98093.25;2096265;28;20241;-79
2021/11/03 03:48:38;;;;;;;57.67;38.90;;;;;;;4.25;100.00;98091.13;2096185;28;20222;-79
2021/11/03 03:49:41;;;;;;;61.28;39.03;;;;;;;4.28;100.00;98092.44;2089145;28;20310;-78
2021/11/03 03:50:46;;;;;;;61.10;39.15;;;;;;;4.31;100.00;98095.28;2088467;28;20222;-79
2021/11/03 03:51:47;;;;;;;60.30;38.83;;;;;;;4.30;100.00;98091.09;2090153;28;20661;-79
2021/11/03 03:52:50;;;;;;;69.60;39.88;;;;;;;4.33;100.00;98101.06;2088037;28;20301;-79
2021/11/03 03:53:52;;;;;;;61.30;39.45;;;;;;;4.32;100.00;98086.31;2091628;28;20275;-77
2021/11/03 03:54:57;;;;;;;59.08;37.95;;;;;;;4.36;100.00;98097.13;2096406;28;20221;-79
2021/11/03 03:55:58;;;;;;;56.03;38.67;;;;;;;4.37;100.00;98099.47;2096162;28;20264;-78
2021/11/03 03:57:02;;;;;;;54.67;37.78;;;;;;;4.38;100.00;98092.34;2096235;28;20259;-79
2021/11/03 03:58:07;;;;;;;60.03;39.92;;;;;;;4.41;100.00;98105.75;2096386;28;20241;-79
2021/11/03 03:59:09;;;;;;;62.13;39.42;;;;;;;4.39;100.00;98093.91;2095962;28;20226;-78
2021/11/03 04:00:15;;;;;;;59.35;38.42;;;;;;;4.45;100.00;98103.38;2096608;28;20229;-79
2021/11/03 04:01:26;;;;;;;56.58;37.67;;;;;;;4.46;100.00;98102.28;2096904;28;20226;-78
2021/11/03 04:02:29;;;;;;;58.28;40.03;;;;;;;4.45;100.00;98104.16;2096869;28;20297;-78
2021/11/03 04:03:32;;;;;;;55.90;37.90;;;;;;;4.48;100.00;98105.44;2096061;28;20273;-78
2021/11/03 04:04:34;;;;;;;53.90;37.55;;;;;;;4.44;100.00;98104.44;2095802;28;20226;-78
2021/11/03 04:05:36;;;;;;;52.23;37.17;;;;;;;4.42;100.00;98104.69;2096283;28;20236;-79
2021/11/03 04:06:37;;;;;;;50.13;35.70;;;;;;;4.41;100.00;98107.63;2095678;28;20283;-74
2021/11/03 04:07:40;;;;;;;51.60;36.47;;;;;;;4.38;100.00;98111.59;2095789;28;20225;-79
2021/11/03 04:08:41;;;;;;;52.65;37.17;;;;;;;4.35;100.00;98106.91;2096162;28;20732;-79
2021/11/03 04:09:43;;;;;;;53.97;37.77;;;;;;;4.35;100.00;98111.38;2096053;28;20713;-79
2021/11/03 04:10:44;;;;;;;55.15;37.50;;;;;;;4.31;100.00;98111.13;2104427;28;20237;-78
2021/11/03 04:11:47;;;;;;;55.00;38.22;;;;;;;4.30;100.00;98116.72;2104156;28;20606;-78
2021/11/03 04:12:53;;;;;;;54.03;37.28;;;;;;;4.26;100.00;98113.84;2089657;28;20226;-78
2021/11/03 04:13:56;;;;;;;54.95;37.22;;;;;;;4.27;100.00;98112.78;2089676;28;20279;-78
2021/11/03 04:14:59;;;;;;;48.70;35.13;;;;;;;4.22;100.00;98110.94;2097468;28;20225;-78
2021/11/03 04:16:02;;;;;;;50.07;36.73;;;;;;;4.21;100.00;98117.31;2097942;28;20222;-78
2021/11/03 04:17:04;;;;;;;51.45;37.60;;;;;;;4.17;100.00;98120.75;2097579;28;20292;-78
2021/11/03 04:18:08;;;;;;;50.15;35.33;;;;;;;4.15;100.00;98113.13;2097492;28;20221;-77
2021/11/03 04:19:09;;;;;;;53.00;35.40;;;;;;;4.12;100.00;98124.25;2097688;28;20221;-78
2021/11/03 04:20:15;;;;;;;53.38;37.28;;;;;;;4.06;100.00;98120.06;2089347;28;20233;-78
2021/11/03 04:21:17;;;;;;;50.85;35.85;;;;;;;4.02;100.00;98123.53;2089956;28;20692;-78
2021/11/03 04:22:20;;;;;;;50.83;36.53;;;;;;;3.99;100.00;98119.59;2097722;28;20297;-78
2021/11/03 04:23:23;;;;;;;49.17;36.45;;;;;;;3.98;100.00;98118.00;2089078;28;20214;-79
2021/11/03 04:24:27;;;;;;;55.25;37.92;;;;;;;3.95;100.00;98119.34;2097562;28;20315;-78
2021/11/03 04:25:30;;;;;;;54.78;36.28;;;;;;;3.93;100.00;98126.78;2097715;28;20225;-78
2021/11/03 04:26:35;;;;;;;51.47;36.40;;;;;;;3.88;100.00;98112.81;2089375;28;20758;-80
2021/11/03 04:27:40;;;;;;;51.17;35.10;;;;;;;3.84;100.00;98120.50;2089778;28;20225;-78
2021/11/03 04:28:42;;;;;;;49.45;34.30;;;;;;;3.87;100.00;98121.78;2097744;28;20229;-78
2021/11/03 04:29:44;;;;;;;46.25;34.45;;;;;;;3.90;100.00;98122.03;2097119;28;20234;-78
2021/11/03 04:30:49;;;;;;;45.63;33.58;;;;;;;3.94;100.00;98128.34;2091826;28;20612;-78
2021/11/03 04:31:57;;;;;;;48.22;35.08;;;;;;;4.01;100.00;98125.41;2095537;28;20226;-78
2021/11/03 04:32:59;;;;;;;49.63;36.38;;;;;;;3.97;100.00;98125.13;2089719;28;20604;-79
2021/11/03 04:34:01;;;;;;;48.83;34.20;;;;;;;3.93;100.00;98124.13;2091369;28;20226;-79
2021/11/03 04:35:03;;;;;;;48.05;34.85;;;;;;;3.87;100.00;98119.16;2097607;28;20580;-79
2021/11/03 04:36:05;;;;;;;48.75;35.10;;;;;;;3.78;100.00;98132.16;2106021;28;20221;-78
2021/11/03 04:37:07;;;;;;;43.70;34.35;;;;;;;3.72;100.00;98132.44;2105924;28;20683;-78
2021/11/03 04:38:12;;;;;;;47.38;34.50;;;;;;;3.64;100.00;98133.81;2089073;28;20233;-78
2021/11/03 04:39:14;;;;;;;44.95;33.47;;;;;;;3.58;100.00;98134.91;2089166;28;20231;-79
2021/11/03 04:40:20;;;;;;;43.92;33.30;;;;;;;3.52;100.00;98141.28;2089633;28;20715;-78
2021/11/03 04:41:23;;;;;;;45.40;33.70;;;;;;;3.46;100.00;98140.50;2097372;28;20261;-78
2021/11/03 04:42:27;;;;;;;43.72;33.15;;;;;;;3.41;100.00;98137.91;2097518;28;20232;-78
2021/11/03 04:43:29;;;;;;;43.00;33.17;;;;;;;3.40;100.00;98136.34;2091507;28;20218;-79
2021/11/03 04:44:32;;;;;;;49.10;34.33;;;;;;;3.40;100.00;98133.69;2096864;28;20218;-78
2021/11/03 04:45:37;;;;;;;48.25;34.15;;;;;;;3.42;100.00;98130.78;2097411;28;20222;-78
2021/11/03 04:46:41;;;;;;;41.88;31.48;;;;;;;3.46;100.00;98134.44;2097461;28;20664;-78
2021/11/03 04:47:44;;;;;;;42.58;32.45;;;;;;;3.48;100.00;98140.25;2097344;28;20218;-78
2021/11/03 04:48:48;;;;;;;45.58;34.55;;;;;;;3.47;100.00;98143.94;2105184;28;20278;-78
2021/11/03 04:49:51;;;;;;;50.38;35.90;;;;;;;3.46;100.00;98137.09;2105871;28;20217;-78